Sunday, January 25, 2015, 11:19 PM EST
Back to Local

KMTP, Montauk Airport

Location: Montauk, NY, United States Lat: 41.067
Local Time: 11:19 PM EST ( 4:19 GMT) Lon: -71.917
Time Zone: US/Eastern Elev: 6 ft

Show me the last for .
Show Coded

Time T Td Feel RH Dir Speed Gust Alt SLP Vis Weather Sky Remarks
2015-01-25 22:54 30 7 22 37 350° 8 - 30.01 30.01 0 None
2015-01-25 21:54 31 8 21 37 330° 13 - 29.98 29.98 0 None
2015-01-25 20:54 33 12 25 41 350° 10 - 29.97 29.96 0 None
2015-01-25 19:54 34 11 26 37 340° 10 - 29.94 29.93 0 None
2015-01-25 18:54 35 14 27 41 320° 12 - 29.90 29.90 0 6-hr Min Temp (7pm): 35.1°F
6-hr Max Temp (7pm): 43.0°F
2015-01-25 17:54 36 15 28 41 320° 10 - 29.87 29.87 0 None
2015-01-25 16:54 37 17 30 43 320° 10 - 29.82 29.82 0 None
2015-01-25 15:54 39 19 29 44 310° 14 21 29.79 29.79 0 None
2015-01-25 14:54 42 21 33 42 280° 13 21 29.75 29.75 0 None
2015-01-25 13:54 42 24 33 48 260° 14 23 29.73 29.73 0 None
2015-01-25 12:54 42 25 32 50 260° 14 24 29.70 29.70 0 6-hr Min Temp (1pm): 37.0°F
6-hr Max Temp (1pm): 42.1°F
2015-01-25 11:54 41 27 31 57 270° 13 24 29.68 29.68 0 None
2015-01-25 10:54 41 28 31 59 260° 16 25 29.70 29.70 0 None
2015-01-25 09:54 39 29 28 66 250° 10 23 29.68 29.68 0 None
2015-01-25 08:54 38 28 27 67 250° 14 23 29.65 29.65 0 None
2015-01-25 07:54 37 28 26 69 250° 12 21 29.62 29.62 0 None
2015-01-25 06:54 37 29 26 72 270° 10 21 29.60 29.59 0 24-hr Precip Total (7am): 0.66"
6-hr Min Temp (7am): 36.0°F
6-hr Max Temp (7am): 37.0°F
2015-01-25 04:54 37 28 26 69 260° 13 21 29.54 29.54 0 None
2015-01-25 03:54 37 28 27 69 270° 12 20 29.52 29.52 0 None
2015-01-25 02:54 36 27 25 69 270° 14 21 29.50 29.50 0 None
2015-01-25 01:54 36 26 25 66 280° 13 22 29.47 29.47 0 None
2015-01-25 00:54 37 26 26 64 280° 14 21 29.44 29.43 0 6-hr Precip Total (1am): 0.02"
6-hr Min Temp (1am): 36.0°F
6-hr Max Temp (1am): 37.0°F
2015-01-24 23:54 37 26 27 64 280° 12 20 29.41 29.41 0 24-hr Min Temp (12am): 33.1°F
24-hr Max Temp (12am): 37.9°F

Support USWX by starting your Amazon purchase here.